This is the latest recevied weather packets stored in our database for station/object W1CAT. If no packets are shown the sender has not sent any weather packets the latest 10 day(s).
| Time | Temp. | Humidity | Pressure | Rain* | Wind** | Luminosity | Snow |
|---|---|---|---|---|---|---|---|
| 1777991033 | 10.56° C | 57% | - | 0 mm | - | - | - |
| 1777990730 | 10° C | 58% | - | 0 mm | - | - | - |
| 1777990427 | 8.89° C | 61% | - | 0 mm | - | - | - |
| 1777989820 | 8.89° C | 62% | - | 0 mm | - | - | - |
| 1777989518 | 7.22° C | 66% | - | 0 mm | - | - | - |
| 1777989214 | 6.11° C | 70% | - | 0 mm | - | - | - |
| 1777988910 | 5° C | 73% | - | 0 mm | - | - | - |
| 1777988607 | 4.44° C | 74% | - | 0 mm | - | - | - |
| 1777988303 | 3.89° C | 77% | - | 0 mm | - | - | - |
| 1777988000 | 3.33° C | 77% | - | 0 mm | - | - | - |
| 1777987696 | 3.33° C | 78% | - | 0 mm | - | - | - |
| 1777987393 | 2.78° C | 79% | - | 0 mm | - | - | - |
| 1777987090 | 2.78° C | 80% | - | 0 mm | - | - | - |
| 1777986788 | 2.22° C | 81% | - | 0 mm | - | - | - |
| 1777986485 | 2.22° C | 83% | - | 0 mm | - | - | - |
| 1777986183 | 2.22° C | 82% | - | 0 mm | - | - | - |
| 1777985880 | 1.67° C | 83% | - | 0 mm | - | - | - |
| 1777985577 | 1.67° C | 84% | - | 0 mm | - | - | - |
| 1777985274 | 1.67° C | 84% | - | 0 mm | - | - | - |
| 1777984971 | 1.67° C | 84% | - | 0 mm | - | - | - |
| 1777984666 | 1.11° C | 84% | - | 0 mm | - | - | - |
| 1777984363 | 1.11° C | 86% | - | 0 mm | - | - | - |
| 1777984060 | 1.11° C | 86% | - | 0 mm | - | - | - |
| 1777983757 | 1.11° C | 87% | - | 0 mm | - | - | - |
| 1777983453 | 1.11° C | 86% | - | 0 mm | - | - | - |
* Rain latest hour (hover to see other rain measurements)
** Current wind speed in m/s (hover to see current wind gust speed)